createdAt,value
2022-11-16T00:00:50.196Z,5.53
2022-11-16T00:06:01.845Z,5.52
2022-11-16T00:11:12.729Z,5.53
2022-11-16T00:16:21.503Z,5.56
2022-11-16T00:21:30.125Z,5.57
2022-11-16T00:26:37.814Z,5.58
2022-11-16T00:31:46.194Z,5.59
2022-11-16T00:36:54.492Z,5.58
2022-11-16T00:42:02.125Z,5.58
2022-11-16T00:47:10.720Z,5.60
2022-11-16T00:52:18.496Z,5.63
2022-11-16T00:57:26.449Z,5.73
2022-11-16T01:02:34.599Z,5.83
2022-11-16T01:07:43.744Z,5.91
2022-11-16T01:12:52.890Z,6.00
2022-11-16T01:18:00.554Z,6.10
2022-11-16T01:23:08.789Z,6.16
2022-11-16T01:28:19.206Z,6.18
2022-11-16T01:33:31.743Z,6.19
2022-11-16T01:38:39.611Z,6.21
2022-11-16T01:43:57.118Z,6.22
2022-11-16T01:49:12.242Z,6.21
2022-11-16T01:54:20.917Z,6.21
2022-11-16T01:59:36.572Z,6.21
2022-11-16T02:04:51.356Z,6.21
2022-11-16T02:10:18.001Z,6.20
2022-11-16T02:15:31.128Z,6.18
2022-11-16T02:20:56.116Z,6.16
2022-11-16T02:26:26.389Z,6.15
2022-11-16T02:31:39.003Z,6.10
2022-11-16T02:36:48.531Z,6.06
2022-11-16T02:41:58.423Z,6.03
2022-11-16T02:47:10.528Z,5.98
2022-11-16T02:52:19.125Z,5.93
2022-11-16T02:57:45.221Z,5.91
2022-11-16T03:03:08.430Z,5.88
2022-11-16T03:08:23.290Z,5.86
2022-11-16T03:13:35.563Z,5.83
2022-11-16T03:18:44.871Z,5.83
2022-11-16T03:23:53.197Z,5.80
2022-11-16T03:29:08.775Z,5.78
2022-11-16T03:34:20.980Z,5.73
2022-11-16T03:39:33.045Z,5.67
2022-11-16T03:44:43.788Z,5.58
2022-11-16T03:49:50.888Z,5.48
2022-11-16T03:54:58.964Z,5.42
2022-11-16T04:00:10.312Z,5.36
2022-11-16T04:05:42.385Z,5.30
2022-11-16T04:11:12.257Z,5.25
2022-11-16T04:16:36.881Z,5.21
2022-11-16T04:22:08.506Z,5.18
2022-11-16T04:27:36.086Z,5.17
2022-11-16T04:33:01.499Z,5.16
2022-11-16T04:38:08.640Z,5.15
2022-11-16T04:43:15.979Z,5.14
2022-11-16T04:48:23.832Z,5.15
2022-11-16T04:53:33.290Z,5.15
2022-11-16T04:59:01.584Z,5.16
2022-11-16T05:04:09.750Z,5.16
2022-11-16T05:09:17.855Z,5.16
2022-11-16T05:14:25.210Z,5.16
2022-11-16T05:19:51.552Z,5.19
2022-11-16T05:24:58.896Z,5.20
2022-11-16T05:30:07.822Z,5.22
2022-11-16T05:35:15.135Z,5.23
2022-11-16T05:40:23.102Z,5.25
2022-11-16T05:45:35.601Z,5.27
2022-11-16T05:50:43.343Z,5.28
2022-11-16T05:55:56.700Z,5.30
2022-11-16T06:01:04.135Z,5.33
2022-11-16T06:06:12.740Z,5.35
2022-11-16T06:11:19.981Z,5.38
2022-11-16T06:16:27.280Z,5.40
2022-11-16T06:21:34.911Z,5.43
2022-11-16T06:26:43.463Z,5.45
2022-11-16T06:31:50.536Z,5.48
2022-11-16T06:36:57.786Z,5.49
2022-11-16T06:42:05.302Z,5.54
2022-11-16T06:47:13.038Z,5.57
2022-11-16T06:52:20.199Z,5.62
2022-11-16T06:57:27.555Z,5.65
2022-11-16T07:02:34.707Z,5.69
2022-11-16T07:07:42.302Z,5.74
2022-11-16T07:12:49.415Z,5.78
2022-11-16T07:18:03.849Z,5.80
2022-11-16T07:23:14.171Z,5.84
2022-11-16T07:28:24.697Z,5.87
2022-11-16T07:33:32.081Z,5.92
2022-11-16T07:39:04.700Z,5.96
2022-11-16T07:44:12.355Z,5.99
2022-11-16T07:49:21.925Z,6.04
2022-11-16T07:54:31.878Z,6.09
2022-11-16T07:59:38.960Z,6.09
2022-11-16T08:04:47.228Z,6.09
2022-11-16T08:09:54.572Z,6.11
2022-11-16T08:15:02.295Z,6.15
2022-11-16T08:20:11.822Z,6.15
2022-11-16T08:25:19.843Z,6.14
2022-11-16T08:30:27.364Z,6.14
2022-11-16T08:35:36.367Z,6.13
2022-11-16T08:40:43.475Z,6.14
2022-11-16T08:45:51.546Z,6.14
2022-11-16T08:51:21.116Z,6.14
2022-11-16T08:56:33.790Z,6.15
2022-11-16T09:01:42.421Z,6.18
2022-11-16T09:06:49.357Z,6.21
2022-11-16T09:11:57.202Z,6.21
2022-11-16T09:17:04.634Z,6.20
2022-11-16T09:22:11.743Z,6.17
2022-11-16T09:27:22.045Z,6.12
2022-11-16T09:32:29.020Z,6.09
2022-11-16T09:37:36.040Z,6.07
2022-11-16T09:42:58.540Z,6.06
2022-11-16T09:48:12.249Z,6.11
2022-11-16T09:53:31.693Z,6.15
2022-11-16T09:58:45.211Z,6.16
2022-11-16T10:03:56.740Z,6.09
2022-11-16T10:09:04.098Z,6.04
2022-11-16T10:14:25.443Z,6.02
2022-11-16T10:19:40.369Z,6.03
2022-11-16T10:24:57.981Z,6.04
2022-11-16T10:30:14.346Z,6.06
2022-11-16T10:35:28.646Z,6.10
2022-11-16T10:40:40.090Z,6.10
2022-11-16T10:45:52.938Z,6.12
2022-11-16T10:51:00.188Z,6.09
2022-11-16T10:56:18.849Z,6.09
2022-11-16T11:01:37.894Z,6.14
2022-11-16T11:06:45.770Z,6.13
2022-11-16T11:12:20.771Z,6.12
2022-11-16T11:17:28.608Z,6.14
2022-11-16T11:22:43.144Z,6.17
2022-11-16T11:27:50.975Z,6.16
2022-11-16T11:32:59.150Z,6.13
2022-11-16T11:38:08.444Z,6.10
2022-11-16T11:43:25.284Z,6.09
2022-11-16T11:48:47.868Z,6.08
2022-11-16T11:53:58.733Z,6.08
2022-11-16T11:59:06.203Z,6.09
2022-11-16T12:05:04.676Z,6.13
2022-11-16T12:10:22.503Z,6.17
2022-11-16T12:15:55.578Z,6.20
2022-11-16T12:21:12.798Z,6.15
2022-11-16T12:26:29.494Z,6.14
2022-11-16T12:31:52.400Z,6.13
2022-11-16T12:37:05.346Z,6.11
2022-11-16T12:42:24.610Z,6.08
2022-11-16T12:47:39.871Z,6.05
2022-11-16T12:53:10.599Z,6.05
2022-11-16T12:58:28.530Z,6.02
2022-11-16T13:03:43.749Z,5.99
2022-11-16T13:09:04.740Z,5.96
2022-11-16T13:14:18.796Z,5.94
2022-11-16T13:19:26.455Z,5.91
2022-11-16T13:24:51.014Z,5.88
2022-11-16T13:30:02.923Z,5.89
2022-11-16T13:35:14.022Z,5.89
2022-11-16T13:40:27.170Z,5.86
2022-11-16T13:45:38.999Z,5.85
2022-11-16T13:50:51.721Z,5.83
2022-11-16T13:56:01.333Z,5.84
2022-11-16T14:01:11.005Z,5.83
2022-11-16T14:06:53.038Z,5.81
2022-11-16T14:12:19.866Z,5.82
2022-11-16T14:17:53.816Z,5.80
2022-11-16T14:23:12.985Z,5.78
2022-11-16T14:28:44.328Z,5.74
2022-11-16T14:33:54.431Z,5.73
2022-11-16T14:39:41.183Z,5.71
2022-11-16T14:44:49.218Z,5.67
2022-11-16T14:49:57.443Z,5.62
2022-11-16T14:55:10.860Z,5.60
2022-11-16T15:00:25.842Z,5.57
2022-11-16T15:05:37.678Z,5.56
2022-11-16T15:10:52.356Z,5.55
2022-11-16T15:16:16.871Z,5.50
2022-11-16T15:21:25.688Z,5.47
2022-11-16T15:26:32.619Z,5.45
2022-11-16T15:31:42.745Z,5.43
2022-11-16T15:36:50.307Z,5.43
2022-11-16T15:42:03.258Z,5.42
2022-11-16T15:47:13.397Z,5.42
2022-11-16T15:52:50.423Z,5.40
2022-11-16T15:58:15.015Z,5.39
2022-11-16T16:03:25.550Z,5.39
2022-11-16T16:08:37.938Z,5.36
2022-11-16T16:13:57.631Z,5.36
2022-11-16T16:19:09.932Z,5.36
2022-11-16T16:24:45.134Z,5.35
2022-11-16T16:29:54.051Z,5.34
2022-11-16T16:35:02.681Z,5.32
2022-11-16T16:40:11.814Z,5.30
2022-11-16T16:45:22.462Z,5.27
2022-11-16T16:50:29.328Z,5.24
2022-11-16T16:55:37.706Z,5.20
2022-11-16T17:00:44.873Z,5.18
2022-11-16T17:05:53.726Z,5.16
2022-11-16T17:11:00.688Z,5.15
2022-11-16T17:16:09.042Z,5.15
2022-11-16T17:21:15.986Z,5.14
2022-11-16T17:26:22.994Z,5.13
2022-11-16T17:31:30.109Z,5.11
2022-11-16T17:36:37.328Z,5.09
2022-11-16T17:41:44.393Z,5.07
2022-11-16T17:46:51.579Z,5.07
2022-11-16T17:51:58.595Z,5.04
2022-11-16T17:57:05.589Z,5.04
2022-11-16T18:02:14.315Z,5.04
2022-11-16T18:07:21.658Z,5.02
2022-11-16T18:12:29.240Z,4.99
2022-11-16T18:17:36.532Z,4.97
2022-11-16T18:22:44.892Z,4.95
2022-11-16T18:27:55.151Z,4.90
2022-11-16T18:33:02.235Z,4.86
2022-11-16T18:38:13.108Z,4.84
2022-11-16T18:43:20.061Z,4.80
2022-11-16T18:48:27.594Z,4.77
2022-11-16T18:53:35.322Z,4.74
2022-11-16T18:58:50.398Z,4.70
2022-11-16T19:03:59.255Z,4.68
2022-11-16T19:09:09.713Z,4.66
2022-11-16T19:14:16.982Z,4.64
2022-11-16T19:19:24.507Z,4.62
2022-11-16T19:24:31.891Z,4.61
2022-11-16T19:29:39.011Z,4.58
2022-11-16T19:34:46.202Z,4.55
2022-11-16T19:39:53.104Z,4.52
2022-11-16T19:45:00.416Z,4.47
2022-11-16T19:50:10.136Z,4.44
2022-11-16T19:55:17.507Z,4.43
2022-11-16T20:00:25.042Z,4.41
2022-11-16T20:05:33.402Z,4.36
2022-11-16T20:10:40.451Z,4.35
2022-11-16T20:15:50.185Z,4.33
2022-11-16T20:21:00.896Z,4.31
2022-11-16T20:26:09.997Z,4.30
2022-11-16T20:31:21.307Z,4.30
2022-11-16T20:36:30.064Z,4.29
2022-11-16T20:41:37.443Z,4.28
2022-11-16T20:46:45.354Z,4.27
2022-11-16T20:51:52.620Z,4.27
2022-11-16T20:57:00.090Z,4.27
2022-11-16T21:02:07.234Z,4.27
2022-11-16T21:07:14.636Z,4.29
2022-11-16T21:12:50.599Z,4.30
2022-11-16T21:17:57.725Z,4.31
2022-11-16T21:23:05.319Z,4.31
2022-11-16T21:28:12.335Z,4.30
2022-11-16T21:33:19.404Z,4.28
2022-11-16T21:38:27.410Z,4.25
2022-11-16T21:43:36.594Z,4.24
2022-11-16T21:48:44.551Z,4.22
2022-11-16T21:53:51.866Z,4.21
2022-11-16T21:58:59.026Z,4.20
2022-11-16T22:04:23.640Z,4.19
2022-11-16T22:09:30.821Z,4.17
2022-11-16T22:14:38.296Z,4.14
2022-11-16T22:19:45.870Z,4.14
2022-11-16T22:24:54.113Z,4.14
2022-11-16T22:30:02.018Z,4.11
2022-11-16T22:35:10.499Z,4.09
2022-11-16T22:40:18.616Z,4.07
2022-11-16T22:45:26.271Z,4.06
2022-11-16T22:50:34.232Z,4.05
2022-11-16T22:55:42.085Z,4.04
2022-11-16T23:00:49.902Z,4.04
2022-11-16T23:05:57.652Z,4.03
2022-11-16T23:11:25.344Z,4.00
2022-11-16T23:16:33.252Z,3.99
2022-11-16T23:21:58.106Z,4.00
2022-11-16T23:27:23.799Z,4.00
2022-11-16T23:32:31.782Z,4.01
2022-11-16T23:37:52.754Z,4.00
2022-11-16T23:43:18.020Z,3.99
2022-11-16T23:48:25.657Z,3.98
2022-11-16T23:53:33.770Z,3.96
2022-11-16T23:58:41.633Z,3.97
